sensor_id;sensor_type;location;lat;lon;timestamp;pressure;altitude;pressure_sealevel;temperature;humidity
68380;BME280;57711;53.196;19.638;2023-03-01T00:01:12;101509.27;;;0.61;57.04
68380;BME280;57711;53.196;19.638;2023-03-01T00:03:40;101509.00;;;0.58;57.04
68380;BME280;57711;53.196;19.638;2023-03-01T00:06:07;101517.30;;;0.54;56.96
68380;BME280;57711;53.196;19.638;2023-03-01T00:08:35;101521.88;;;0.50;56.96
68380;BME280;57711;53.196;19.638;2023-03-01T00:13:32;101519.79;;;0.42;57.01
68380;BME280;57711;53.196;19.638;2023-03-01T00:16:02;101524.17;;;0.37;56.95
68380;BME280;57711;53.196;19.638;2023-03-01T00:18:29;101529.23;;;0.34;56.99
68380;BME280;57711;53.196;19.638;2023-03-01T00:20:56;101529.61;;;0.33;57.07
68380;BME280;57711;53.196;19.638;2023-03-01T00:23:24;101528.59;;;0.38;57.16
68380;BME280;57711;53.196;19.638;2023-03-01T00:25:51;101529.85;;;0.44;57.12
68380;BME280;57711;53.196;19.638;2023-03-01T00:28:19;101528.58;;;0.51;57.17
68380;BME280;57711;53.196;19.638;2023-03-01T00:30:46;101526.27;;;0.59;57.21
68380;BME280;57711;53.196;19.638;2023-03-01T00:33:14;101519.20;;;0.63;57.18
68380;BME280;57711;53.196;19.638;2023-03-01T00:35:41;101510.18;;;0.67;57.14
68380;BME280;57711;53.196;19.638;2023-03-01T00:38:09;101501.11;;;0.66;57.12
68380;BME280;57711;53.196;19.638;2023-03-01T00:40:36;101501.38;;;0.63;57.05
68380;BME280;57711;53.196;19.638;2023-03-01T00:43:03;101506.71;;;0.64;57.21
68380;BME280;57711;53.196;19.638;2023-03-01T00:45:32;101498.02;;;0.63;57.15
68380;BME280;57711;53.196;19.638;2023-03-01T00:48:00;101493.02;;;0.63;57.17
68380;BME280;57711;53.196;19.638;2023-03-01T00:50:27;101487.89;;;0.62;57.25
68380;BME280;57711;53.196;19.638;2023-03-01T00:52:55;101484.09;;;0.59;57.16
68380;BME280;57711;53.196;19.638;2023-03-01T00:55:23;101472.09;;;0.54;57.11
68380;BME280;57711;53.196;19.638;2023-03-01T00:57:51;101469.82;;;0.53;57.25
68380;BME280;57711;53.196;19.638;2023-03-01T01:00:19;101468.59;;;0.52;57.37
68380;BME280;57711;53.196;19.638;2023-03-01T01:02:47;101475.90;;;0.52;57.34
68380;BME280;57711;53.196;19.638;2023-03-01T01:05:14;101473.58;;;0.52;57.35
68380;BME280;57711;53.196;19.638;2023-03-01T01:07:41;101479.63;;;0.52;57.45
68380;BME280;57711;53.196;19.638;2023-03-01T01:10:09;101486.19;;;0.53;57.45
68380;BME280;57711;53.196;19.638;2023-03-01T01:12:40;101488.16;;;0.53;57.31
68380;BME280;57711;53.196;19.638;2023-03-01T01:15:07;101483.55;;;0.51;57.31
68380;BME280;57711;53.196;19.638;2023-03-01T01:17:34;101479.11;;;0.51;57.31
68380;BME280;57711;53.196;19.638;2023-03-01T01:20:02;101471.06;;;0.53;57.30
68380;BME280;57711;53.196;19.638;2023-03-01T01:22:29;101467.39;;;0.57;57.36
68380;BME280;57711;53.196;19.638;2023-03-01T01:24:56;101468.39;;;0.60;57.22
68380;BME280;57711;53.196;19.638;2023-03-01T01:27:24;101465.55;;;0.60;57.16
68380;BME280;57711;53.196;19.638;2023-03-01T01:29:52;101463.58;;;0.60;57.12
68380;BME280;57711;53.196;19.638;2023-03-01T01:32:20;101466.90;;;0.62;57.25
68380;BME280;57711;53.196;19.638;2023-03-01T01:34:47;101474.48;;;0.65;57.32
68380;BME280;57711;53.196;19.638;2023-03-01T01:37:14;101470.90;;;0.65;57.35
68380;BME280;57711;53.196;19.638;2023-03-01T01:39:41;101469.52;;;0.64;57.35
68380;BME280;57711;53.196;19.638;2023-03-01T01:42:15;101476.11;;;0.63;57.32
68380;BME280;57711;53.196;19.638;2023-03-01T01:44:46;101468.33;;;0.61;57.29
68380;BME280;57711;53.196;19.638;2023-03-01T01:47:19;101466.60;;;0.60;57.30
68380;BME280;57711;53.196;19.638;2023-03-01T01:49:51;101459.52;;;0.59;57.32
68380;BME280;57711;53.196;19.638;2023-03-01T01:54:57;101453.77;;;0.54;57.27
68380;BME280;57711;53.196;19.638;2023-03-01T01:57:27;101449.48;;;0.49;57.32
68380;BME280;57711;53.196;19.638;2023-03-01T01:59:59;101442.48;;;0.45;57.33
68380;BME280;57711;53.196;19.638;2023-03-01T02:02:27;101434.01;;;0.42;57.43
68380;BME280;57711;53.196;19.638;2023-03-01T02:05:09;101435.72;;;0.38;57.46
68380;BME280;57711;53.196;19.638;2023-03-01T02:07:39;101423.36;;;0.34;57.37
68380;BME280;57711;53.196;19.638;2023-03-01T02:10:07;101410.64;;;0.31;57.47
68380;BME280;57711;53.196;19.638;2023-03-01T02:12:36;101413.02;;;0.29;57.51
68380;BME280;57711;53.196;19.638;2023-03-01T02:15:05;101410.95;;;0.26;57.51
68380;BME280;57711;53.196;19.638;2023-03-01T02:17:33;101409.05;;;0.25;57.54
68380;BME280;57711;53.196;19.638;2023-03-01T02:22:43;101408.42;;;0.28;57.52
68380;BME280;57711;53.196;19.638;2023-03-01T02:30:44;101413.11;;;0.39;57.43
68380;BME280;57711;53.196;19.638;2023-03-01T02:33:32;101418.67;;;0.43;57.39
68380;BME280;57711;53.196;19.638;2023-03-01T02:36:02;101423.98;;;0.44;57.40
68380;BME280;57711;53.196;19.638;2023-03-01T02:38:31;101419.87;;;0.45;57.37
68380;BME280;57711;53.196;19.638;2023-03-01T02:40:59;101412.70;;;0.46;57.46
68380;BME280;57711;53.196;19.638;2023-03-01T02:43:32;101416.60;;;0.47;57.48
68380;BME280;57711;53.196;19.638;2023-03-01T02:46:14;101410.55;;;0.47;57.48
68380;BME280;57711;53.196;19.638;2023-03-01T02:48:47;101413.80;;;0.45;57.46
68380;BME280;57711;53.196;19.638;2023-03-01T02:53:48;101409.45;;;0.43;57.49
68380;BME280;57711;53.196;19.638;2023-03-01T02:56:21;101408.03;;;0.42;57.55
68380;BME280;57711;53.196;19.638;2023-03-01T02:58:48;101398.67;;;0.40;57.49
68380;BME280;57711;53.196;19.638;2023-03-01T03:01:19;101398.09;;;0.35;57.57
68380;BME280;57711;53.196;19.638;2023-03-01T03:03:47;101396.55;;;0.32;57.55
68380;BME280;57711;53.196;19.638;2023-03-01T03:06:14;101394.27;;;0.31;57.66
68380;BME280;57711;53.196;19.638;2023-03-01T03:08:41;101389.55;;;0.28;57.63
68380;BME280;57711;53.196;19.638;2023-03-01T03:11:09;101393.37;;;0.26;57.70
68380;BME280;57711;53.196;19.638;2023-03-01T03:13:36;101391.61;;;0.25;57.59
68380;BME280;57711;53.196;19.638;2023-03-01T03:16:03;101393.42;;;0.24;57.77
68380;BME280;57711;53.196;19.638;2023-03-01T03:18:31;101390.06;;;0.23;57.65
68380;BME280;57711;53.196;19.638;2023-03-01T03:20:58;101392.78;;;0.21;57.75
68380;BME280;57711;53.196;19.638;2023-03-01T03:23:25;101391.73;;;0.21;57.69
68380;BME280;57711;53.196;19.638;2023-03-01T03:25:52;101393.72;;;0.20;57.67
68380;BME280;57711;53.196;19.638;2023-03-01T03:28:19;101399.36;;;0.22;57.76
68380;BME280;57711;53.196;19.638;2023-03-01T03:30:47;101397.17;;;0.23;57.69
68380;BME280;57711;53.196;19.638;2023-03-01T03:33:14;101391.92;;;0.26;57.69
68380;BME280;57711;53.196;19.638;2023-03-01T03:35:44;101395.00;;;0.30;57.69
68380;BME280;57711;53.196;19.638;2023-03-01T03:38:13;101390.77;;;0.36;57.73
68380;BME280;57711;53.196;19.638;2023-03-01T03:40:49;101390.98;;;0.41;57.74
68380;BME280;57711;53.196;19.638;2023-03-01T03:43:21;101385.61;;;0.42;57.65
68380;BME280;57711;53.196;19.638;2023-03-01T03:45:50;101376.55;;;0.42;57.78
68380;BME280;57711;53.196;19.638;2023-03-01T03:48:18;101374.98;;;0.41;57.76
68380;BME280;57711;53.196;19.638;2023-03-01T03:50:50;101371.61;;;0.40;57.72
68380;BME280;57711;53.196;19.638;2023-03-01T03:53:18;101374.39;;;0.37;57.71
68380;BME280;57711;53.196;19.638;2023-03-01T03:55:45;101365.93;;;0.27;57.67
68380;BME280;57711;53.196;19.638;2023-03-01T03:58:16;101360.87;;;0.18;57.65
68380;BME280;57711;53.196;19.638;2023-03-01T04:00:54;101361.20;;;0.13;57.73
68380;BME280;57711;53.196;19.638;2023-03-01T04:03:24;101351.55;;;0.07;57.80
68380;BME280;57711;53.196;19.638;2023-03-01T04:05:52;101353.05;;;0.05;57.90
68380;BME280;57711;53.196;19.638;2023-03-01T04:08:22;101347.73;;;0.05;57.93
68380;BME280;57711;53.196;19.638;2023-03-01T04:10:51;101343.27;;;0.05;57.96
68380;BME280;57711;53.196;19.638;2023-03-01T04:13:21;101341.27;;;0.06;58.02
68380;BME280;57711;53.196;19.638;2023-03-01T04:15:49;101344.63;;;0.07;58.06
68380;BME280;57711;53.196;19.638;2023-03-01T04:18:19;101340.36;;;0.07;57.94
68380;BME280;57711;53.196;19.638;2023-03-01T04:20:46;101335.57;;;0.07;57.98
68380;BME280;57711;53.196;19.638;2023-03-01T04:23:16;101331.23;;;0.09;57.97
68380;BME280;57711;53.196;19.638;2023-03-01T04:25:49;101335.16;;;0.15;58.09
68380;BME280;57711;53.196;19.638;2023-03-01T04:28:35;101334.83;;;0.21;58.10
68380;BME280;57711;53.196;19.638;2023-03-01T04:31:08;101339.38;;;0.29;58.08
68380;BME280;57711;53.196;19.638;2023-03-01T04:36:14;101345.03;;;0.43;58.17
68380;BME280;57711;53.196;19.638;2023-03-01T04:38:43;101341.34;;;0.47;58.25
68380;BME280;57711;53.196;19.638;2023-03-01T04:41:16;101341.20;;;0.51;58.24
68380;BME280;57711;53.196;19.638;2023-03-01T04:43:44;101340.20;;;0.55;58.26
68380;BME280;57711;53.196;19.638;2023-03-01T04:46:14;101336.64;;;0.55;58.27
68380;BME280;57711;53.196;19.638;2023-03-01T04:48:42;101334.50;;;0.55;58.27
68380;BME280;57711;53.196;19.638;2023-03-01T04:51:10;101331.13;;;0.55;58.25
68380;BME280;57711;53.196;19.638;2023-03-01T04:53:40;101329.20;;;0.54;58.27
68380;BME280;57711;53.196;19.638;2023-03-01T04:56:08;101328.34;;;0.52;58.31
68380;BME280;57711;53.196;19.638;2023-03-01T04:58:36;101329.33;;;0.50;58.22
68380;BME280;57711;53.196;19.638;2023-03-01T05:01:10;101335.80;;;0.48;58.27
68380;BME280;57711;53.196;19.638;2023-03-01T05:03:43;101339.76;;;0.46;58.23
68380;BME280;57711;53.196;19.638;2023-03-01T05:06:11;101340.01;;;0.44;58.27
68380;BME280;57711;53.196;19.638;2023-03-01T05:08:40;101346.82;;;0.43;58.31
68380;BME280;57711;53.196;19.638;2023-03-01T05:11:08;101339.22;;;0.41;58.29
68380;BME280;57711;53.196;19.638;2023-03-01T05:13:37;101335.02;;;0.38;58.23
68380;BME280;57711;53.196;19.638;2023-03-01T05:16:06;101335.71;;;0.39;58.19
68380;BME280;57711;53.196;19.638;2023-03-01T05:18:33;101336.83;;;0.37;58.11
68380;BME280;57711;53.196;19.638;2023-03-01T05:21:07;101332.39;;;0.36;58.20
68380;BME280;57711;53.196;19.638;2023-03-01T05:23:35;101332.02;;;0.37;58.21
68380;BME280;57711;53.196;19.638;2023-03-01T05:26:04;101333.52;;;0.41;58.24
68380;BME280;57711;53.196;19.638;2023-03-01T05:28:37;101328.80;;;0.44;58.29
68380;BME280;57711;53.196;19.638;2023-03-01T05:31:05;101329.29;;;0.45;58.30
68380;BME280;57711;53.196;19.638;2023-03-01T05:33:42;101331.26;;;0.45;58.30
68380;BME280;57711;53.196;19.638;2023-03-01T05:36:10;101326.30;;;0.44;58.32
68380;BME280;57711;53.196;19.638;2023-03-01T05:38:37;101332.07;;;0.42;58.30
68380;BME280;57711;53.196;19.638;2023-03-01T05:41:04;101328.44;;;0.38;58.29
68380;BME280;57711;53.196;19.638;2023-03-01T05:43:31;101328.05;;;0.33;58.28
68380;BME280;57711;53.196;19.638;2023-03-01T05:46:01;101326.20;;;0.30;58.40
68380;BME280;57711;53.196;19.638;2023-03-01T05:48:28;101332.64;;;0.29;58.37
68380;BME280;57711;53.196;19.638;2023-03-01T05:50:59;101334.68;;;0.25;58.35
68380;BME280;57711;53.196;19.638;2023-03-01T05:53:26;101335.70;;;0.21;58.38
68380;BME280;57711;53.196;19.638;2023-03-01T05:55:53;101339.06;;;0.22;58.59
68380;BME280;57711;53.196;19.638;2023-03-01T05:58:21;101333.06;;;0.20;58.42
68380;BME280;57711;53.196;19.638;2023-03-01T06:00:48;101337.20;;;0.18;58.52
68380;BME280;57711;53.196;19.638;2023-03-01T06:03:16;101333.13;;;0.17;58.52
68380;BME280;57711;53.196;19.638;2023-03-01T06:05:44;101335.52;;;0.21;58.49
68380;BME280;57711;53.196;19.638;2023-03-01T06:08:12;101338.38;;;0.27;58.54
68380;BME280;57711;53.196;19.638;2023-03-01T06:10:40;101344.45;;;0.32;58.51
68380;BME280;57711;53.196;19.638;2023-03-01T06:13:07;101343.71;;;0.40;58.54
68380;BME280;57711;53.196;19.638;2023-03-01T06:15:35;101343.11;;;0.47;58.55
68380;BME280;57711;53.196;19.638;2023-03-01T06:18:02;101342.43;;;0.52;58.55
68380;BME280;57711;53.196;19.638;2023-03-01T06:20:29;101342.11;;;0.57;58.59
68380;BME280;57711;53.196;19.638;2023-03-01T06:22:56;101342.58;;;0.59;58.60
68380;BME280;57711;53.196;19.638;2023-03-01T06:25:25;101338.86;;;0.59;58.58
68380;BME280;57711;53.196;19.638;2023-03-01T06:27:53;101337.20;;;0.61;58.63
68380;BME280;57711;53.196;19.638;2023-03-01T06:30:22;101336.61;;;0.62;58.75
68380;BME280;57711;53.196;19.638;2023-03-01T06:32:50;101333.16;;;0.65;58.79
68380;BME280;57711;53.196;19.638;2023-03-01T06:35:18;101330.77;;;0.67;58.85
68380;BME280;57711;53.196;19.638;2023-03-01T06:37:47;101328.12;;;0.66;58.76
68380;BME280;57711;53.196;19.638;2023-03-01T06:40:15;101330.63;;;0.66;58.83
68380;BME280;57711;53.196;19.638;2023-03-01T06:42:43;101333.66;;;0.65;58.90
68380;BME280;57711;53.196;19.638;2023-03-01T06:45:14;101339.42;;;0.69;58.83
68380;BME280;57711;53.196;19.638;2023-03-01T06:47:41;101337.09;;;0.69;58.94
68380;BME280;57711;53.196;19.638;2023-03-01T06:50:09;101341.48;;;0.71;58.94
68380;BME280;57711;53.196;19.638;2023-03-01T06:52:36;101347.66;;;0.73;58.97
68380;BME280;57711;53.196;19.638;2023-03-01T06:55:04;101348.05;;;0.78;58.92
68380;BME280;57711;53.196;19.638;2023-03-01T06:57:32;101346.55;;;0.81;58.93
68380;BME280;57711;53.196;19.638;2023-03-01T06:59:59;101350.46;;;0.86;58.92
68380;BME280;57711;53.196;19.638;2023-03-01T07:02:26;101352.19;;;0.93;58.97
68380;BME280;57711;53.196;19.638;2023-03-01T07:04:53;101352.27;;;1.03;59.07
68380;BME280;57711;53.196;19.638;2023-03-01T07:07:21;101353.58;;;1.11;59.15
68380;BME280;57711;53.196;19.638;2023-03-01T07:09:48;101349.68;;;1.16;59.00
68380;BME280;57711;53.196;19.638;2023-03-01T07:12:15;101346.73;;;1.19;58.98
68380;BME280;57711;53.196;19.638;2023-03-01T07:14:44;101345.86;;;1.19;59.09
68380;BME280;57711;53.196;19.638;2023-03-01T07:17:11;101348.36;;;1.19;59.09
68380;BME280;57711;53.196;19.638;2023-03-01T07:19:38;101347.05;;;1.20;59.10
68380;BME280;57711;53.196;19.638;2023-03-01T07:22:06;101338.97;;;1.23;59.15
68380;BME280;57711;53.196;19.638;2023-03-01T07:24:34;101338.08;;;1.23;59.15
68380;BME280;57711;53.196;19.638;2023-03-01T07:27:01;101337.08;;;1.20;59.14
68380;BME280;57711;53.196;19.638;2023-03-01T07:29:29;101341.16;;;1.21;59.17
68380;BME280;57711;53.196;19.638;2023-03-01T07:31:56;101334.86;;;1.28;59.14
68380;BME280;57711;53.196;19.638;2023-03-01T07:34:23;101331.77;;;1.35;59.26
68380;BME280;57711;53.196;19.638;2023-03-01T07:36:50;101324.94;;;1.43;59.24
68380;BME280;57711;53.196;19.638;2023-03-01T07:39:17;101319.37;;;1.49;59.23
68380;BME280;57711;53.196;19.638;2023-03-01T07:41:45;101320.29;;;1.53;59.24
68380;BME280;57711;53.196;19.638;2023-03-01T07:44:12;101322.94;;;1.59;59.37
68380;BME280;57711;53.196;19.638;2023-03-01T07:46:39;101320.45;;;1.64;59.34
68380;BME280;57711;53.196;19.638;2023-03-01T07:49:06;101326.75;;;1.67;59.31
68380;BME280;57711;53.196;19.638;2023-03-01T07:51:36;101325.79;;;1.69;59.43
68380;BME280;57711;53.196;19.638;2023-03-01T07:54:03;101329.39;;;1.74;59.48
68380;BME280;57711;53.196;19.638;2023-03-01T07:56:30;101329.34;;;1.80;59.52
68380;BME280;57711;53.196;19.638;2023-03-01T07:58:59;101331.97;;;1.86;59.46
68380;BME280;57711;53.196;19.638;2023-03-01T08:01:26;101336.51;;;1.94;59.47
68380;BME280;57711;53.196;19.638;2023-03-01T08:03:53;101334.98;;;2.02;59.45
68380;BME280;57711;53.196;19.638;2023-03-01T08:06:20;101330.61;;;2.09;59.32
68380;BME280;57711;53.196;19.638;2023-03-01T08:08:48;101330.39;;;2.15;59.47
68380;BME280;57711;53.196;19.638;2023-03-01T08:11:15;101333.76;;;2.21;59.47
68380;BME280;57711;53.196;19.638;2023-03-01T08:13:43;101335.71;;;2.25;59.53
68380;BME280;57711;53.196;19.638;2023-03-01T08:16:13;101342.61;;;2.36;59.73
68380;BME280;57711;53.196;19.638;2023-03-01T08:18:42;101346.41;;;2.49;59.81
68380;BME280;57711;53.196;19.638;2023-03-01T08:21:14;101347.92;;;2.57;59.56
68380;BME280;57711;53.196;19.638;2023-03-01T08:23:42;101342.23;;;2.61;59.68
68380;BME280;57711;53.196;19.638;2023-03-01T08:26:15;101342.55;;;2.67;59.59
68380;BME280;57711;53.196;19.638;2023-03-01T08:28:42;101347.55;;;2.71;59.53
68380;BME280;57711;53.196;19.638;2023-03-01T08:31:28;101348.80;;;2.76;59.74
68380;BME280;57711;53.196;19.638;2023-03-01T08:33:58;101344.68;;;2.80;59.75
68380;BME280;57711;53.196;19.638;2023-03-01T08:36:30;101344.54;;;2.84;59.67
68380;BME280;57711;53.196;19.638;2023-03-01T08:38:58;101340.80;;;2.88;59.69
68380;BME280;57711;53.196;19.638;2023-03-01T08:41:25;101330.87;;;2.99;59.76
68380;BME280;57711;53.196;19.638;2023-03-01T08:43:53;101327.90;;;3.11;59.78
68380;BME280;57711;53.196;19.638;2023-03-01T08:46:29;101321.40;;;3.21;59.80
68380;BME280;57711;53.196;19.638;2023-03-01T08:48:58;101320.33;;;3.30;59.77
68380;BME280;57711;53.196;19.638;2023-03-01T08:51:25;101320.52;;;3.38;59.80
68380;BME280;57711;53.196;19.638;2023-03-01T08:53:53;101321.75;;;3.51;59.83
68380;BME280;57711;53.196;19.638;2023-03-01T08:56:20;101326.56;;;3.60;59.80
68380;BME280;57711;53.196;19.638;2023-03-01T08:58:48;101331.70;;;3.74;59.86
68380;BME280;57711;53.196;19.638;2023-03-01T09:01:18;101329.16;;;3.87;59.90
68380;BME280;57711;53.196;19.638;2023-03-01T09:03:46;101325.08;;;3.94;59.76
68380;BME280;57711;53.196;19.638;2023-03-01T09:06:14;101324.09;;;4.00;59.84
68380;BME280;57711;53.196;19.638;2023-03-01T09:08:44;101313.61;;;4.07;59.84
68380;BME280;57711;53.196;19.638;2023-03-01T09:11:14;101307.94;;;4.13;59.90
68380;BME280;57711;53.196;19.638;2023-03-01T09:13:43;101305.95;;;4.22;59.73
68380;BME280;57711;53.196;19.638;2023-03-01T09:16:13;101303.45;;;4.25;59.62
68380;BME280;57711;53.196;19.638;2023-03-01T09:18:41;101305.95;;;4.26;59.85
68380;BME280;57711;53.196;19.638;2023-03-01T09:21:12;101303.56;;;4.27;59.69
68380;BME280;57711;53.196;19.638;2023-03-01T09:23:41;101299.48;;;4.30;59.97
68380;BME280;57711;53.196;19.638;2023-03-01T09:26:11;101294.54;;;4.40;60.00
68380;BME280;57711;53.196;19.638;2023-03-01T09:28:39;101291.37;;;4.50;59.97
68380;BME280;57711;53.196;19.638;2023-03-01T09:31:08;101285.31;;;4.53;59.76
68380;BME280;57711;53.196;19.638;2023-03-01T09:33:35;101282.18;;;4.55;59.69
68380;BME280;57711;53.196;19.638;2023-03-01T09:36:04;101277.51;;;4.56;59.68
68380;BME280;57711;53.196;19.638;2023-03-01T09:38:32;101282.02;;;4.54;59.78
68380;BME280;57711;53.196;19.638;2023-03-01T09:41:00;101273.35;;;4.56;59.86
68380;BME280;57711;53.196;19.638;2023-03-01T09:43:35;101275.10;;;4.64;59.90
68380;BME280;57711;53.196;19.638;2023-03-01T09:46:09;101273.77;;;4.66;59.86
68380;BME280;57711;53.196;19.638;2023-03-01T09:48:42;101272.73;;;4.73;59.93
68380;BME280;57711;53.196;19.638;2023-03-01T09:51:17;101270.54;;;4.81;60.02
68380;BME280;57711;53.196;19.638;2023-03-01T09:53:45;101273.80;;;4.91;60.11
68380;BME280;57711;53.196;19.638;2023-03-01T09:56:19;101268.61;;;4.95;59.85
68380;BME280;57711;53.196;19.638;2023-03-01T10:04:50;101257.52;;;5.16;60.00
68380;BME280;57711;53.196;19.638;2023-03-01T10:09:58;101250.83;;;5.31;59.84
68380;BME280;57711;53.196;19.638;2023-03-01T10:12:33;101250.89;;;5.37;60.02
68380;BME280;57711;53.196;19.638;2023-03-01T10:15:14;101254.67;;;5.43;59.90
68380;BME280;57711;53.196;19.638;2023-03-01T10:17:52;101254.95;;;5.45;59.82
68380;BME280;57711;53.196;19.638;2023-03-01T10:20:29;101250.88;;;5.51;59.97
68380;BME280;57711;53.196;19.638;2023-03-01T10:23:00;101249.45;;;5.61;60.18
68380;BME280;57711;53.196;19.638;2023-03-01T10:26:27;101248.73;;;5.71;60.12
68380;BME280;57711;53.196;19.638;2023-03-01T10:29:03;101247.03;;;5.83;60.07
68380;BME280;57711;53.196;19.638;2023-03-01T10:31:39;101244.46;;;5.91;60.05
68380;BME280;57711;53.196;19.638;2023-03-01T10:34:18;101239.10;;;5.98;59.97
68380;BME280;57711;53.196;19.638;2023-03-01T10:36:55;101236.02;;;6.08;60.13
68380;BME280;57711;53.196;19.638;2023-03-01T10:39:25;101231.63;;;6.23;60.20
68380;BME280;57711;53.196;19.638;2023-03-01T10:42:03;101228.06;;;6.42;60.26
68380;BME280;57711;53.196;19.638;2023-03-01T10:44:48;101229.04;;;6.53;60.17
68380;BME280;57711;53.196;19.638;2023-03-01T10:47:22;101224.27;;;6.67;60.19
68380;BME280;57711;53.196;19.638;2023-03-01T10:49:57;101224.30;;;6.79;60.10
68380;BME280;57711;53.196;19.638;2023-03-01T10:52:35;101226.66;;;6.85;60.02
68380;BME280;57711;53.196;19.638;2023-03-01T10:57:38;101222.41;;;7.06;60.23
68380;BME280;57711;53.196;19.638;2023-03-01T11:00:21;101226.30;;;7.15;60.23
68380;BME280;57711;53.196;19.638;2023-03-01T11:03:10;101221.41;;;7.23;60.16
68380;BME280;57711;53.196;19.638;2023-03-01T11:14:03;101221.83;;;7.69;60.02
68380;BME280;57711;53.196;19.638;2023-03-01T11:17:02;101221.34;;;7.74;60.05
68380;BME280;57711;53.196;19.638;2023-03-01T11:19:31;101217.30;;;7.78;60.11
68380;BME280;57711;53.196;19.638;2023-03-01T11:22:07;101218.95;;;7.83;60.10
68380;BME280;57711;53.196;19.638;2023-03-01T11:24:47;101217.70;;;7.83;59.99
68380;BME280;57711;53.196;19.638;2023-03-01T11:27:32;101214.40;;;7.84;59.97
68380;BME280;57711;53.196;19.638;2023-03-01T11:33:08;101215.57;;;7.91;60.23
68380;BME280;57711;53.196;19.638;2023-03-01T11:36:03;101208.64;;;8.04;60.27
68380;BME280;57711;53.196;19.638;2023-03-01T11:38:35;101203.36;;;8.13;60.16
68380;BME280;57711;53.196;19.638;2023-03-01T11:41:08;101200.31;;;8.19;60.00
68380;BME280;57711;53.196;19.638;2023-03-01T11:43:52;101201.90;;;8.22;60.08
68380;BME280;57711;53.196;19.638;2023-03-01T12:02:57;101206.16;;;8.71;60.02
68380;BME280;57711;53.196;19.638;2023-03-01T12:08:20;101196.84;;;8.84;59.83
68380;BME280;57711;53.196;19.638;2023-03-01T12:11:38;101199.06;;;8.91;59.89
68380;BME280;57711;53.196;19.638;2023-03-01T12:14:34;101197.50;;;9.01;59.74
68380;BME280;57711;53.196;19.638;2023-03-01T12:23:01;101186.50;;;9.08;59.80
68380;BME280;57711;53.196;19.638;2023-03-01T12:31:33;101184.12;;;9.17;59.83
68380;BME280;57711;53.196;19.638;2023-03-01T12:34:28;101186.76;;;9.23;59.96
68380;BME280;57711;53.196;19.638;2023-03-01T12:45:25;101176.61;;;9.24;59.55
68380;BME280;57711;53.196;19.638;2023-03-01T12:50:31;101169.17;;;9.25;59.69
68380;BME280;57711;53.196;19.638;2023-03-01T12:53:02;101170.25;;;9.25;59.73
68380;BME280;57711;53.196;19.638;2023-03-01T12:55:36;101164.52;;;9.27;59.58
68380;BME280;57711;53.196;19.638;2023-03-01T12:58:11;101161.61;;;9.27;59.72
68380;BME280;57711;53.196;19.638;2023-03-01T13:06:21;101168.92;;;9.41;59.52
68380;BME280;57711;53.196;19.638;2023-03-01T13:09:04;101167.33;;;9.41;59.66
68380;BME280;57711;53.196;19.638;2023-03-01T13:11:34;101169.16;;;9.43;59.52
68380;BME280;57711;53.196;19.638;2023-03-01T13:16:48;101172.25;;;9.45;59.54
68380;BME280;57711;53.196;19.638;2023-03-01T13:19:26;101167.45;;;9.47;59.32
68380;BME280;57711;53.196;19.638;2023-03-01T13:21:56;101169.06;;;9.47;59.65
68380;BME280;57711;53.196;19.638;2023-03-01T13:24:37;101166.02;;;9.44;59.36
68380;BME280;57711;53.196;19.638;2023-03-01T13:32:29;101165.23;;;9.40;59.29
68380;BME280;57711;53.196;19.638;2023-03-01T13:37:42;101160.19;;;9.34;59.33
68380;BME280;57711;53.196;19.638;2023-03-01T13:42:47;101151.24;;;9.31;59.40
68380;BME280;57711;53.196;19.638;2023-03-01T13:45:39;101147.40;;;9.29;59.23
68380;BME280;57711;53.196;19.638;2023-03-01T13:48:22;101148.56;;;9.28;59.31
68380;BME280;57711;53.196;19.638;2023-03-01T13:50:54;101145.30;;;9.28;59.28
68380;BME280;57711;53.196;19.638;2023-03-01T13:53:25;101141.96;;;9.26;59.39
68380;BME280;57711;53.196;19.638;2023-03-01T13:56:16;101141.86;;;9.25;59.32
68380;BME280;57711;53.196;19.638;2023-03-01T13:58:51;101139.29;;;9.21;59.23
68380;BME280;57711;53.196;19.638;2023-03-01T14:01:29;101135.11;;;9.08;59.21
68380;BME280;57711;53.196;19.638;2023-03-01T14:03:57;101136.03;;;9.00;59.26
68380;BME280;57711;53.196;19.638;2023-03-01T14:06:29;101134.27;;;8.94;59.28
68380;BME280;57711;53.196;19.638;2023-03-01T14:09:22;101137.59;;;8.88;59.24
68380;BME280;57711;53.196;19.638;2023-03-01T14:17:33;101137.55;;;8.64;59.21
68380;BME280;57711;53.196;19.638;2023-03-01T14:20:18;101129.19;;;8.57;59.20
68380;BME280;57711;53.196;19.638;2023-03-01T14:22:46;101131.23;;;8.51;59.38
68380;BME280;57711;53.196;19.638;2023-03-01T14:25:27;101129.20;;;8.49;59.30
68380;BME280;57711;53.196;19.638;2023-03-01T14:28:00;101128.78;;;8.44;59.16
68380;BME280;57711;53.196;19.638;2023-03-01T14:30:35;101126.55;;;8.40;59.36
68380;BME280;57711;53.196;19.638;2023-03-01T14:33:05;101125.08;;;8.32;59.30
68380;BME280;57711;53.196;19.638;2023-03-01T14:35:35;101129.56;;;8.26;59.26
68380;BME280;57711;53.196;19.638;2023-03-01T14:38:03;101128.73;;;8.20;59.30
68380;BME280;57711;53.196;19.638;2023-03-01T14:40:33;101127.94;;;8.13;59.07
68380;BME280;57711;53.196;19.638;2023-03-01T14:43:09;101120.34;;;8.07;59.29
68380;BME280;57711;53.196;19.638;2023-03-01T14:45:38;101117.59;;;8.00;58.93
68380;BME280;57711;53.196;19.638;2023-03-01T14:48:06;101116.91;;;7.94;59.11
68380;BME280;57711;53.196;19.638;2023-03-01T14:50:40;101108.77;;;7.89;59.11
68380;BME280;57711;53.196;19.638;2023-03-01T14:53:16;101105.77;;;7.82;59.19
68380;BME280;57711;53.196;19.638;2023-03-01T14:55:47;101106.97;;;7.75;59.11
68380;BME280;57711;53.196;19.638;2023-03-01T14:58:20;101103.80;;;7.71;59.17